createdAt,value
2019-06-20T00:00:36.156Z,50.68
2019-06-20T00:03:02.913Z,50.77
2019-06-20T00:05:29.285Z,50.94
2019-06-20T00:07:55.545Z,50.89
2019-06-20T00:10:21.893Z,50.84
2019-06-20T00:13:00.046Z,51.08
2019-06-20T00:15:16.383Z,51.01
2019-06-20T00:17:42.517Z,50.65
2019-06-20T00:20:08.997Z,50.78
2019-06-20T00:22:35.090Z,50.74
2019-06-20T00:25:02.964Z,50.84
2019-06-20T00:27:30.480Z,50.50
2019-06-20T00:29:56.660Z,50.73
2019-06-20T00:32:22.816Z,50.66
2019-06-20T00:34:49.077Z,50.44
2019-06-20T00:37:15.355Z,50.59
2019-06-20T00:39:42.688Z,50.66
2019-06-20T00:42:08.929Z,50.76
2019-06-20T00:44:35.132Z,50.67
2019-06-20T00:47:01.257Z,50.59
2019-06-20T00:49:27.577Z,50.64
2019-06-20T00:51:53.674Z,50.68
2019-06-20T00:54:19.811Z,50.77
2019-06-20T00:56:45.967Z,50.54
2019-06-20T00:59:12.075Z,50.57
2019-06-20T01:01:38.257Z,50.66
2019-06-20T01:04:04.514Z,50.42
2019-06-20T01:06:30.787Z,50.43
2019-06-20T01:08:56.929Z,50.58
2019-06-20T01:11:23.078Z,50.80
2019-06-20T01:13:52.607Z,50.79
2019-06-20T01:16:17.369Z,50.97
2019-06-20T01:18:43.574Z,51.03
2019-06-20T01:21:10.363Z,50.75
2019-06-20T01:23:36.545Z,50.82
2019-06-20T01:26:02.769Z,50.78
2019-06-20T01:28:28.953Z,50.84
2019-06-20T01:30:55.111Z,51.17
2019-06-20T01:33:21.308Z,51.13
2019-06-20T01:35:47.426Z,51.16
2019-06-20T01:38:13.644Z,51.40
2019-06-20T01:40:39.751Z,51.22
2019-06-20T01:43:05.991Z,51.04
2019-06-20T01:45:32.421Z,51.17
2019-06-20T01:47:58.542Z,51.36
2019-06-20T01:50:24.961Z,51.31
2019-06-20T01:52:51.061Z,51.52
2019-06-20T01:55:17.321Z,51.59
2019-06-20T01:57:43.486Z,51.72
2019-06-20T02:00:10.638Z,51.94
2019-06-20T02:02:36.730Z,51.68
2019-06-20T02:05:05.288Z,52.01
2019-06-20T02:07:31.511Z,52.09
2019-06-20T02:09:57.749Z,51.86
2019-06-20T02:12:24.136Z,51.96
2019-06-20T02:14:50.416Z,52.17
2019-06-20T02:17:16.832Z,52.15
2019-06-20T02:19:42.936Z,52.16
2019-06-20T02:22:09.131Z,52.28
2019-06-20T02:24:35.392Z,52.15
2019-06-20T02:27:01.642Z,52.11
2019-06-20T02:29:27.963Z,52.10
2019-06-20T02:31:54.178Z,52.19
2019-06-20T02:34:20.477Z,52.06
2019-06-20T02:36:46.723Z,52.27
2019-06-20T02:39:12.885Z,52.15
2019-06-20T02:41:39.359Z,52.14
2019-06-20T02:44:05.679Z,52.28
2019-06-20T02:46:31.988Z,52.03
2019-06-20T02:48:58.386Z,52.17
2019-06-20T02:51:25.300Z,51.96
2019-06-20T02:53:51.686Z,51.92
2019-06-20T02:56:18.045Z,52.11
2019-06-20T02:58:44.199Z,52.00
2019-06-20T03:01:10.693Z,52.05
2019-06-20T03:03:36.894Z,52.05
2019-06-20T03:06:03.394Z,52.06
2019-06-20T03:08:29.798Z,52.08
2019-06-20T03:10:56.014Z,52.29
2019-06-20T03:13:22.303Z,52.47
2019-06-20T03:15:50.110Z,52.55
2019-06-20T03:18:20.967Z,52.61
2019-06-20T03:20:48.679Z,52.63
2019-06-20T03:23:14.998Z,52.73
2019-06-20T03:25:41.375Z,52.75
2019-06-20T03:28:07.778Z,52.81
2019-06-20T03:30:34.003Z,52.81
2019-06-20T03:33:00.464Z,52.98
2019-06-20T03:35:27.043Z,52.90
2019-06-20T03:38:02.141Z,52.98
2019-06-20T03:40:28.395Z,53.04
2019-06-20T03:42:54.599Z,53.20
2019-06-20T03:45:20.719Z,52.90
2019-06-20T03:47:46.923Z,53.03
2019-06-20T03:50:13.238Z,53.22
2019-06-20T03:52:39.582Z,53.59
2019-06-20T03:55:05.895Z,54.11
2019-06-20T03:57:32.316Z,54.63
2019-06-20T03:59:58.458Z,54.94
2019-06-20T04:02:24.789Z,55.33
2019-06-20T04:04:51.034Z,55.66
2019-06-20T04:07:17.265Z,55.94
2019-06-20T04:09:43.462Z,56.43
2019-06-20T04:12:09.583Z,56.54
2019-06-20T04:14:35.812Z,56.90
2019-06-20T04:17:01.967Z,56.94
2019-06-20T04:19:28.443Z,57.04
2019-06-20T04:21:54.655Z,57.27
2019-06-20T04:24:20.859Z,57.51
2019-06-20T04:26:47.082Z,57.76
2019-06-20T04:29:14.519Z,57.91
2019-06-20T04:31:40.623Z,58.12
2019-06-20T04:34:06.842Z,58.24
2019-06-20T04:36:32.951Z,58.17
2019-06-20T04:38:59.126Z,58.47
2019-06-20T04:41:25.311Z,58.40
2019-06-20T04:43:51.456Z,58.53
2019-06-20T04:46:19.465Z,58.55
2019-06-20T04:48:45.665Z,58.62
2019-06-20T04:51:11.770Z,59.00
2019-06-20T04:53:37.968Z,58.67
2019-06-20T04:56:05.763Z,58.51
2019-06-20T04:58:32.167Z,58.62
2019-06-20T05:00:58.300Z,58.49
2019-06-20T05:03:24.462Z,58.53
2019-06-20T05:05:50.677Z,58.68
2019-06-20T05:08:16.776Z,58.80
2019-06-20T05:10:43.102Z,58.86
2019-06-20T05:13:09.195Z,59.19
2019-06-20T05:15:51.105Z,60.17
2019-06-20T05:18:03.574Z,59.94
2019-06-20T05:20:29.878Z,59.45
2019-06-20T05:22:56.026Z,59.51
2019-06-20T05:25:22.253Z,59.51
2019-06-20T05:27:48.504Z,59.20
2019-06-20T05:30:15.163Z,59.08
2019-06-20T05:32:41.306Z,59.30
2019-06-20T05:35:08.175Z,59.11
2019-06-20T05:37:34.288Z,59.26
2019-06-20T05:40:00.610Z,59.41
2019-06-20T05:42:26.864Z,59.46
2019-06-20T05:44:53.024Z,59.43
2019-06-20T05:47:19.228Z,59.68
2019-06-20T05:49:45.460Z,60.22
2019-06-20T05:52:11.709Z,61.13
2019-06-20T05:54:37.962Z,61.56
2019-06-20T05:57:04.740Z,62.09
2019-06-20T05:59:31.081Z,62.71
2019-06-20T06:01:57.235Z,62.42
2019-06-20T06:04:23.439Z,63.53
2019-06-20T06:06:49.554Z,64.30
2019-06-20T06:09:15.808Z,65.21
2019-06-20T06:11:42.204Z,65.20
2019-06-20T06:14:08.493Z,65.02
2019-06-20T06:16:34.668Z,64.49
2019-06-20T06:19:01.109Z,65.04
2019-06-20T06:21:27.409Z,64.70
2019-06-20T06:23:53.677Z,63.87
2019-06-20T06:26:20.201Z,63.71
2019-06-20T06:28:46.545Z,63.00
2019-06-20T06:31:13.105Z,62.91
2019-06-20T06:33:40.599Z,63.85
2019-06-20T06:36:06.814Z,63.41
2019-06-20T06:38:33.113Z,63.22
2019-06-20T06:40:59.724Z,63.47
2019-06-20T06:43:26.136Z,64.32
2019-06-20T06:45:52.385Z,64.75
2019-06-20T06:48:18.653Z,64.94
2019-06-20T06:50:44.878Z,64.97
2019-06-20T06:53:11.367Z,65.08
2019-06-20T06:55:37.744Z,64.77
2019-06-20T06:58:04.707Z,64.65
2019-06-20T07:00:30.807Z,64.15
2019-06-20T07:02:57.101Z,63.07
2019-06-20T07:05:24.558Z,62.81
2019-06-20T07:07:51.304Z,62.73
2019-06-20T07:10:17.735Z,62.46
2019-06-20T07:12:43.950Z,62.31
2019-06-20T07:15:14.158Z,61.54
2019-06-20T07:17:40.351Z,61.54
2019-06-20T07:20:07.366Z,61.03
2019-06-20T07:22:34.552Z,61.10
2019-06-20T07:25:00.916Z,60.94
2019-06-20T07:27:27.432Z,60.51
2019-06-20T07:29:53.748Z,61.09
2019-06-20T07:32:19.997Z,61.40
2019-06-20T07:34:47.834Z,60.84
2019-06-20T07:37:14.033Z,61.16
2019-06-20T07:39:40.187Z,61.03
2019-06-20T07:42:06.980Z,60.96
2019-06-20T07:44:33.132Z,60.60
2019-06-20T07:46:59.349Z,59.87
2019-06-20T07:49:25.513Z,60.19
2019-06-20T07:51:51.672Z,59.57
2019-06-20T07:54:17.873Z,59.86
2019-06-20T07:56:44.047Z,60.03
2019-06-20T07:59:10.717Z,60.08
2019-06-20T08:01:37.006Z,60.49
2019-06-20T08:04:03.414Z,61.35
2019-06-20T08:06:29.606Z,60.83
2019-06-20T08:08:55.778Z,60.98
2019-06-20T08:11:22.383Z,61.26
2019-06-20T08:13:48.586Z,61.29
2019-06-20T08:16:15.056Z,60.88
2019-06-20T08:18:41.384Z,61.40
2019-06-20T08:21:07.787Z,61.17
2019-06-20T08:23:34.751Z,61.29
2019-06-20T08:26:00.879Z,60.35
2019-06-20T08:28:27.184Z,60.54
2019-06-20T08:30:54.145Z,60.46
2019-06-20T08:33:20.652Z,59.86
2019-06-20T08:35:46.960Z,59.45
2019-06-20T08:38:13.380Z,59.24
2019-06-20T08:40:39.731Z,58.93
2019-06-20T08:43:06.397Z,58.88
2019-06-20T08:45:33.869Z,59.26
2019-06-20T08:48:00.210Z,58.45
2019-06-20T08:50:26.751Z,58.28
2019-06-20T08:52:52.906Z,57.67
2019-06-20T08:55:19.276Z,57.56
2019-06-20T08:57:45.688Z,56.86
2019-06-20T09:00:14.290Z,56.80
2019-06-20T09:02:40.575Z,56.10
2019-06-20T09:05:07.674Z,55.84
2019-06-20T09:07:34.288Z,56.00
2019-06-20T09:10:01.846Z,55.90
2019-06-20T09:12:28.338Z,56.87
2019-06-20T09:14:55.152Z,55.03
2019-06-20T09:17:21.442Z,55.20
2019-06-20T09:19:47.537Z,54.52
2019-06-20T09:22:13.760Z,54.03
2019-06-20T09:24:39.835Z,54.78
2019-06-20T09:27:06.046Z,54.06
2019-06-20T09:29:41.388Z,54.13
2019-06-20T09:32:00.467Z,54.13
2019-06-20T09:34:26.630Z,54.16
2019-06-20T09:36:55.123Z,53.26
2019-06-20T09:39:21.532Z,53.21
2019-06-20T09:41:48.251Z,52.66
2019-06-20T09:44:14.363Z,51.35
2019-06-20T09:46:40.564Z,51.59
2019-06-20T09:49:06.798Z,50.77
2019-06-20T09:51:33.100Z,47.98
2019-06-20T09:53:59.210Z,48.86
2019-06-20T09:56:25.423Z,47.14
2019-06-20T09:58:51.530Z,47.46
2019-06-20T10:01:17.740Z,47.97
2019-06-20T10:03:44.393Z,48.11
2019-06-20T10:06:13.973Z,48.00
2019-06-20T10:08:38.790Z,48.76
2019-06-20T10:11:05.988Z,47.65
2019-06-20T10:13:32.929Z,46.36
2019-06-20T10:15:59.358Z,47.00
2019-06-20T10:18:25.572Z,47.76
2019-06-20T10:20:53.025Z,48.42
2019-06-20T10:23:19.351Z,48.63
2019-06-20T10:25:46.672Z,49.33
2019-06-20T10:28:13.563Z,48.44
2019-06-20T10:30:39.735Z,49.04
2019-06-20T10:33:06.094Z,48.08
2019-06-20T10:35:32.556Z,48.49
2019-06-20T10:37:58.731Z,48.73
2019-06-20T10:40:26.318Z,48.61
2019-06-20T10:42:52.948Z,47.76
2019-06-20T10:45:21.798Z,47.00
2019-06-20T10:47:49.034Z,47.72
2019-06-20T10:50:15.873Z,47.44
2019-06-20T10:52:43.396Z,47.00
2019-06-20T10:55:10.297Z,47.00
2019-06-20T10:57:36.762Z,46.73
2019-06-20T11:00:09.818Z,45.46
2019-06-20T11:02:36.081Z,45.63
2019-06-20T11:05:04.872Z,46.40
2019-06-20T11:07:31.144Z,45.54
2019-06-20T11:09:57.321Z,44.93
2019-06-20T11:12:23.533Z,44.10
2019-06-20T11:14:49.706Z,44.31
2019-06-20T11:17:16.171Z,43.15
2019-06-20T11:19:43.775Z,40.91
2019-06-20T11:22:10.059Z,41.87
2019-06-20T11:24:38.876Z,40.35
2019-06-20T11:27:04.403Z,40.64
2019-06-20T11:29:30.599Z,39.70
2019-06-20T11:31:56.828Z,38.41
2019-06-20T11:34:23.253Z,34.39
2019-06-20T11:36:49.500Z,32.93
2019-06-20T11:39:15.744Z,31.66
2019-06-20T11:41:41.983Z,31.90
2019-06-20T11:44:08.164Z,33.34
2019-06-20T11:46:35.420Z,33.24
2019-06-20T11:49:03.724Z,33.93
2019-06-20T11:51:30.065Z,32.93
2019-06-20T11:53:56.385Z,31.17
2019-06-20T11:56:22.696Z,29.96
2019-06-20T11:58:48.975Z,29.37
2019-06-20T12:01:15.369Z,28.58
2019-06-20T12:03:42.530Z,27.55
2019-06-20T12:06:08.755Z,27.07
2019-06-20T12:08:34.960Z,25.45
2019-06-20T12:11:01.162Z,26.24
2019-06-20T12:13:27.375Z,25.12
2019-06-20T12:15:53.484Z,25.34
2019-06-20T12:18:19.690Z,25.00
2019-06-20T12:20:46.814Z,24.38
2019-06-20T12:23:13.076Z,23.76
2019-06-20T12:25:40.886Z,23.91
2019-06-20T12:28:07.482Z,23.68
2019-06-20T12:30:33.581Z,23.79
2019-06-20T12:32:59.782Z,23.73
2019-06-20T12:35:26.015Z,23.83
2019-06-20T12:37:52.314Z,23.82
2019-06-20T12:40:19.035Z,23.62
2019-06-20T12:42:46.643Z,22.54
2019-06-20T12:45:14.091Z,23.46
2019-06-20T12:47:41.785Z,23.67
2019-06-20T12:50:08.704Z,22.12
2019-06-20T12:52:36.003Z,22.44
2019-06-20T12:55:03.948Z,22.13
2019-06-20T12:57:30.153Z,22.00
2019-06-20T12:59:56.617Z,22.35
2019-06-20T13:02:23.180Z,21.44
2019-06-20T13:04:50.603Z,21.92
2019-06-20T13:07:16.965Z,21.95
2019-06-20T13:09:44.013Z,21.87
2019-06-20T13:12:10.259Z,21.16
2019-06-20T13:14:36.362Z,21.47
2019-06-20T13:17:02.784Z,24.40
2019-06-20T13:19:28.911Z,25.67
2019-06-20T13:21:55.128Z,26.62
2019-06-20T13:24:21.288Z,26.69
2019-06-20T13:26:48.881Z,27.82
2019-06-20T13:29:15.631Z,26.67
2019-06-20T13:32:00.521Z,25.13
2019-06-20T13:34:09.899Z,23.89
2019-06-20T13:36:36.171Z,22.50
2019-06-20T13:39:05.627Z,20.76
2019-06-20T13:41:32.287Z,20.95
2019-06-20T13:43:58.530Z,20.94
2019-06-20T13:46:24.684Z,20.26
2019-06-20T13:48:50.900Z,19.91
2019-06-20T13:51:17.561Z,20.13
2019-06-20T13:53:46.267Z,21.45
2019-06-20T13:56:12.995Z,20.51
2019-06-20T13:58:40.693Z,22.93
2019-06-20T14:01:08.366Z,23.50
2019-06-20T14:03:35.138Z,24.52
2019-06-20T14:06:01.886Z,24.96
2019-06-20T14:08:28.316Z,26.90
2019-06-20T14:10:58.804Z,28.08
2019-06-20T14:13:25.321Z,28.61
2019-06-20T14:15:51.546Z,28.61
2019-06-20T14:18:17.813Z,28.77
2019-06-20T14:20:44.841Z,28.83
2019-06-20T14:23:11.176Z,29.93
2019-06-20T14:25:37.436Z,31.12
2019-06-20T14:28:03.814Z,31.54
2019-06-20T14:30:30.189Z,32.49
2019-06-20T14:32:56.754Z,32.51
2019-06-20T14:35:23.271Z,32.45
2019-06-20T14:37:51.563Z,31.54
2019-06-20T14:40:17.785Z,31.55
2019-06-20T14:42:44.552Z,31.34
2019-06-20T14:45:12.569Z,29.48
2019-06-20T14:47:38.864Z,27.98
2019-06-20T14:50:07.325Z,27.80
2019-06-20T14:52:33.542Z,27.81
2019-06-20T14:54:59.661Z,28.23
2019-06-20T14:57:27.056Z,27.54
2019-06-20T14:59:54.405Z,28.15
2019-06-20T15:02:20.667Z,27.44
2019-06-20T15:04:47.847Z,27.20
2019-06-20T15:07:14.286Z,27.35
2019-06-20T15:09:40.460Z,28.24
2019-06-20T15:12:06.608Z,28.65
2019-06-20T15:14:32.773Z,28.80
2019-06-20T15:16:59.098Z,27.77
2019-06-20T15:19:25.594Z,26.93
2019-06-20T15:21:52.143Z,26.67
2019-06-20T15:24:18.353Z,26.02
2019-06-20T15:26:45.859Z,26.24
2019-06-20T15:29:12.831Z,26.52
2019-06-20T15:31:39.052Z,27.26
2019-06-20T15:34:05.791Z,28.33
2019-06-20T15:36:32.175Z,28.03
2019-06-20T15:38:58.391Z,26.93
2019-06-20T15:41:28.719Z,27.31
2019-06-20T15:44:02.909Z,27.36
2019-06-20T15:46:30.620Z,26.68
2019-06-20T15:48:59.838Z,26.39
2019-06-20T15:51:25.170Z,26.42
2019-06-20T15:53:51.852Z,26.67
2019-06-20T15:56:18.127Z,26.09
2019-06-20T15:58:44.418Z,26.84
2019-06-20T16:01:18.900Z,26.85
2019-06-20T16:03:50.583Z,27.62
2019-06-20T16:06:19.786Z,28.66
2019-06-20T16:08:46.465Z,29.89
2019-06-20T16:11:13.149Z,30.71
2019-06-20T16:13:39.345Z,31.67
2019-06-20T16:16:05.802Z,32.33
2019-06-20T16:18:32.095Z,33.03
2019-06-20T16:20:59.566Z,33.72
2019-06-20T16:23:26.041Z,34.45
2019-06-20T16:25:54.084Z,34.97
2019-06-20T16:28:20.520Z,35.09
2019-06-20T16:30:47.975Z,34.92
2019-06-20T16:33:25.138Z,35.28
2019-06-20T16:35:51.280Z,35.73
2019-06-20T16:38:23.119Z,36.95
2019-06-20T16:40:49.922Z,37.43
2019-06-20T16:43:16.351Z,37.93
2019-06-20T16:45:43.013Z,36.89
2019-06-20T16:48:09.475Z,37.14
2019-06-20T16:50:38.859Z,36.79
2019-06-20T16:53:05.347Z,37.40
2019-06-20T16:55:35.930Z,37.42
2019-06-20T16:58:04.559Z,37.98
2019-06-20T17:00:31.292Z,37.82
2019-06-20T17:02:57.653Z,38.14
2019-06-20T17:05:24.281Z,38.38
2019-06-20T17:07:52.697Z,38.83
2019-06-20T17:10:30.267Z,39.21
2019-06-20T17:12:58.111Z,39.37
2019-06-20T17:15:28.740Z,39.16
2019-06-20T17:18:00.559Z,39.56
2019-06-20T17:20:29.636Z,39.95
2019-06-20T17:22:56.949Z,39.91
2019-06-20T17:25:23.294Z,39.85
2019-06-20T17:27:49.602Z,40.37
2019-06-20T17:30:18.004Z,40.42
2019-06-20T17:32:44.315Z,40.75
2019-06-20T17:35:10.776Z,40.89
2019-06-20T17:37:37.179Z,41.29
2019-06-20T17:40:07.980Z,41.35
2019-06-20T17:42:34.344Z,41.85
2019-06-20T17:45:00.497Z,41.89
2019-06-20T17:47:27.553Z,42.01
2019-06-20T17:49:53.860Z,42.62
2019-06-20T17:52:20.222Z,42.93
2019-06-20T17:54:46.505Z,43.37
2019-06-20T17:57:12.722Z,43.52
2019-06-20T17:59:41.017Z,44.04
2019-06-20T18:02:07.942Z,44.95
2019-06-20T18:04:34.177Z,45.84
2019-06-20T18:07:00.432Z,46.32
2019-06-20T18:09:29.372Z,47.03
2019-06-20T18:11:55.933Z,47.37
2019-06-20T18:14:22.234Z,47.61
2019-06-20T18:16:48.387Z,47.93
2019-06-20T18:19:14.740Z,48.02
2019-06-20T18:21:41.123Z,48.13
2019-06-20T18:24:07.329Z,48.44
2019-06-20T18:26:33.781Z,48.28
2019-06-20T18:28:59.930Z,48.48
2019-06-20T18:31:26.092Z,48.82
2019-06-20T18:33:52.331Z,48.54
2019-06-20T18:36:18.484Z,48.94
2019-06-20T18:38:46.265Z,49.39
2019-06-20T18:41:12.531Z,49.66
2019-06-20T18:43:38.672Z,49.89
2019-06-20T18:46:05.316Z,50.33
2019-06-20T18:48:31.852Z,50.35
2019-06-20T18:50:58.126Z,50.58
2019-06-20T18:53:24.401Z,50.68
2019-06-20T18:55:50.553Z,50.86
2019-06-20T18:58:16.784Z,51.30
2019-06-20T19:00:42.994Z,51.50
2019-06-20T19:03:09.198Z,51.08
2019-06-20T19:05:36.367Z,51.31
2019-06-20T19:08:03.316Z,51.30
2019-06-20T19:10:33.343Z,51.01
2019-06-20T19:12:57.675Z,51.28
2019-06-20T19:15:24.306Z,51.60
2019-06-20T19:17:52.414Z,52.15
2019-06-20T19:20:19.379Z,52.35
2019-06-20T19:22:45.620Z,52.42
2019-06-20T19:25:12.230Z,52.83
2019-06-20T19:27:46.280Z,52.66
2019-06-20T19:30:08.855Z,52.98
2019-06-20T19:32:35.289Z,52.92
2019-06-20T19:35:03.100Z,52.80
2019-06-20T19:37:29.322Z,52.87
2019-06-20T19:39:55.694Z,53.13
2019-06-20T19:42:24.105Z,53.09
2019-06-20T19:44:50.494Z,52.84
2019-06-20T19:47:17.383Z,53.07
2019-06-20T19:49:43.702Z,52.83
2019-06-20T19:52:11.843Z,52.69
2019-06-20T19:54:38.326Z,52.96
2019-06-20T19:57:04.733Z,52.75
2019-06-20T19:59:30.931Z,53.50
2019-06-20T20:01:57.194Z,53.63
2019-06-20T20:04:23.471Z,53.87
2019-06-20T20:06:49.853Z,53.81
2019-06-20T20:09:16.191Z,54.00
2019-06-20T20:11:43.454Z,54.48
2019-06-20T20:14:09.833Z,54.73
2019-06-20T20:16:35.954Z,54.94
2019-06-20T20:19:02.651Z,54.25
2019-06-20T20:21:29.241Z,54.07
2019-06-20T20:23:55.928Z,53.81
2019-06-20T20:26:23.159Z,54.10
2019-06-20T20:28:49.457Z,53.93
2019-06-20T20:31:20.190Z,53.93
2019-06-20T20:33:46.505Z,53.81
2019-06-20T20:36:24.578Z,54.10
2019-06-20T20:38:40.869Z,54.35
2019-06-20T20:41:07.133Z,54.43
2019-06-20T20:43:33.613Z,54.22
2019-06-20T20:46:00.932Z,54.57
2019-06-20T20:48:27.250Z,55.09
2019-06-20T20:50:53.505Z,55.49
2019-06-20T20:53:19.782Z,55.45
2019-06-20T20:55:46.031Z,55.74
2019-06-20T20:58:12.235Z,55.73
2019-06-20T21:00:45.086Z,55.85
2019-06-20T21:03:11.251Z,55.99
2019-06-20T21:05:50.620Z,56.20
2019-06-20T21:08:05.675Z,56.39
2019-06-20T21:10:31.843Z,56.77
2019-06-20T21:12:58.017Z,56.93
2019-06-20T21:15:24.257Z,57.28
2019-06-20T21:17:50.416Z,57.38
2019-06-20T21:20:17.827Z,57.54
2019-06-20T21:22:43.939Z,57.70
2019-06-20T21:25:10.443Z,57.74
2019-06-20T21:27:36.566Z,57.97
2019-06-20T21:30:06.323Z,58.05
2019-06-20T21:32:32.641Z,58.27
2019-06-20T21:34:58.929Z,58.48
2019-06-20T21:37:25.242Z,58.67
2019-06-20T21:39:51.445Z,58.52
2019-06-20T21:42:17.750Z,58.44
2019-06-20T21:44:44.038Z,58.49
2019-06-20T21:47:11.309Z,58.33
2019-06-20T21:49:37.461Z,58.24
2019-06-20T21:52:03.845Z,58.42
2019-06-20T21:54:30.227Z,58.33
2019-06-20T21:56:56.388Z,58.19
2019-06-20T21:59:22.536Z,58.35
2019-06-20T22:01:48.808Z,58.36
2019-06-20T22:04:15.148Z,58.20
2019-06-20T22:06:41.426Z,58.39
2019-06-20T22:09:07.666Z,58.32
2019-06-20T22:11:34.820Z,58.48
2019-06-20T22:14:00.996Z,58.42
2019-06-20T22:16:27.137Z,58.66
2019-06-20T22:18:53.273Z,58.79
2019-06-20T22:21:19.431Z,58.91
2019-06-20T22:23:46.669Z,59.01
2019-06-20T22:26:12.832Z,59.11
2019-06-20T22:28:39.143Z,59.14
2019-06-20T22:31:05.445Z,59.42
2019-06-20T22:33:31.883Z,59.66
2019-06-20T22:35:57.970Z,59.83
2019-06-20T22:38:24.197Z,60.22
2019-06-20T22:40:50.402Z,60.30
2019-06-20T22:43:16.741Z,60.53
2019-06-20T22:45:43.008Z,60.68
2019-06-20T22:48:09.398Z,60.70
2019-06-20T22:50:35.651Z,60.67
2019-06-20T22:53:02.003Z,60.82
2019-06-20T22:55:28.150Z,60.90
2019-06-20T22:57:54.308Z,60.81
2019-06-20T23:00:21.036Z,60.74
2019-06-20T23:02:47.359Z,60.68
2019-06-20T23:05:13.675Z,60.94
2019-06-20T23:07:40.029Z,60.95
2019-06-20T23:10:10.851Z,61.17
2019-06-20T23:12:35.682Z,61.07
2019-06-20T23:15:03.530Z,61.27
2019-06-20T23:17:29.683Z,61.47
2019-06-20T23:19:55.828Z,61.47
2019-06-20T23:22:21.984Z,61.51
2019-06-20T23:24:48.252Z,61.50
2019-06-20T23:27:14.411Z,61.77
2019-06-20T23:29:40.569Z,61.99
2019-06-20T23:32:06.719Z,62.02
2019-06-20T23:34:32.873Z,62.00
2019-06-20T23:37:12.194Z,62.09
2019-06-20T23:39:28.451Z,62.06
2019-06-20T23:41:54.869Z,62.19
2019-06-20T23:44:20.974Z,62.55
2019-06-20T23:46:47.209Z,62.59
2019-06-20T23:49:13.343Z,62.59
2019-06-20T23:51:44.472Z,62.93
2019-06-20T23:54:10.586Z,62.72
2019-06-20T23:56:36.833Z,63.21
2019-06-20T23:59:03.312Z,63.42
